sensor_id;sensor_type;location;lat;lon;timestamp;pressure;altitude;pressure_sealevel;temperature;humidity
74621;BME280;64861;47.546;19.254;2022-12-18T00:01:21;100474.38;;;21.03;50.84
74621;BME280;64861;47.546;19.254;2022-12-18T00:03:47;100473.66;;;21.01;51.05
74621;BME280;64861;47.546;19.254;2022-12-18T00:06:13;100468.59;;;20.98;50.71
74621;BME280;64861;47.546;19.254;2022-12-18T00:08:39;100484.28;;;21.01;50.83
74621;BME280;64861;47.546;19.254;2022-12-18T00:11:07;100493.81;;;21.04;50.72
74621;BME280;64861;47.546;19.254;2022-12-18T00:13:33;100494.09;;;21.10;50.76
74621;BME280;64861;47.546;19.254;2022-12-18T00:16:03;100504.44;;;21.04;50.46
74621;BME280;64861;47.546;19.254;2022-12-18T00:18:29;100504.72;;;21.01;50.56
74621;BME280;64861;47.546;19.254;2022-12-18T00:20:58;100500.22;;;21.01;50.61
74621;BME280;64861;47.546;19.254;2022-12-18T00:23:24;100516.06;;;21.03;50.74
74621;BME280;64861;47.546;19.254;2022-12-18T00:25:50;100514.91;;;20.96;50.63
74621;BME280;64861;47.546;19.254;2022-12-18T00:28:15;100523.72;;;20.96;50.77
74621;BME280;64861;47.546;19.254;2022-12-18T00:30:40;100516.72;;;20.95;50.39
74621;BME280;64861;47.546;19.254;2022-12-18T00:33:06;100529.03;;;20.96;50.42
74621;BME280;64861;47.546;19.254;2022-12-18T00:35:31;100532.28;;;21.00;50.57
74621;BME280;64861;47.546;19.254;2022-12-18T00:37:57;100537.59;;;21.00;50.42
74621;BME280;64861;47.546;19.254;2022-12-18T00:40:22;100538.69;;;20.97;50.37
74621;BME280;64861;47.546;19.254;2022-12-18T00:42:48;100544.44;;;21.02;50.51
74621;BME280;64861;47.546;19.254;2022-12-18T00:45:29;100546.13;;;21.03;50.20
74621;BME280;64861;47.546;19.254;2022-12-18T00:47:56;100549.91;;;21.01;50.15
74621;BME280;64861;47.546;19.254;2022-12-18T00:50:23;100546.13;;;21.03;50.15
74621;BME280;64861;47.546;19.254;2022-12-18T00:52:49;100549.47;;;21.05;49.94
74621;BME280;64861;47.546;19.254;2022-12-18T00:55:15;100540.91;;;20.92;50.16
74621;BME280;64861;47.546;19.254;2022-12-18T00:57:41;100561.63;;;20.98;50.19
74621;BME280;64861;47.546;19.254;2022-12-18T01:00:08;100549.59;;;20.94;50.09
74621;BME280;64861;47.546;19.254;2022-12-18T01:02:34;100547.09;;;20.93;50.05
74621;BME280;64861;47.546;19.254;2022-12-18T01:05:00;100554.09;;;21.03;50.11
74621;BME280;64861;47.546;19.254;2022-12-18T01:07:26;100562.63;;;20.97;49.76
74621;BME280;64861;47.546;19.254;2022-12-18T01:09:51;100564.16;;;21.00;49.92
74621;BME280;64861;47.546;19.254;2022-12-18T01:12:17;100559.66;;;20.91;49.89
74621;BME280;64861;47.546;19.254;2022-12-18T01:14:42;100578.97;;;21.02;49.80
74621;BME280;64861;47.546;19.254;2022-12-18T01:17:08;100578.03;;;21.03;49.88
74621;BME280;64861;47.546;19.254;2022-12-18T01:19:33;100571.41;;;20.98;49.99
74621;BME280;64861;47.546;19.254;2022-12-18T01:21:59;100573.25;;;20.97;49.93
74621;BME280;64861;47.546;19.254;2022-12-18T01:24:24;100584.00;;;20.96;49.86
74621;BME280;64861;47.546;19.254;2022-12-18T01:26:50;100585.03;;;21.04;49.64
74621;BME280;64861;47.546;19.254;2022-12-18T01:29:15;100568.91;;;20.96;49.87
74621;BME280;64861;47.546;19.254;2022-12-18T01:31:41;100585.81;;;20.95;49.80
74621;BME280;64861;47.546;19.254;2022-12-18T01:34:06;100588.66;;;21.03;49.69
74621;BME280;64861;47.546;19.254;2022-12-18T01:36:34;100599.56;;;21.00;49.52
74621;BME280;64861;47.546;19.254;2022-12-18T01:39:04;100589.03;;;20.99;49.79
74621;BME280;64861;47.546;19.254;2022-12-18T01:41:31;100590.75;;;21.00;49.89
74621;BME280;64861;47.546;19.254;2022-12-18T01:50:09;100591.38;;;20.92;49.79
74621;BME280;64861;47.546;19.254;2022-12-18T01:52:36;100602.47;;;20.97;49.82
74621;BME280;64861;47.546;19.254;2022-12-18T01:55:06;100607.78;;;20.97;49.87
74621;BME280;64861;47.546;19.254;2022-12-18T01:57:32;100605.53;;;20.93;49.68
74621;BME280;64861;47.546;19.254;2022-12-18T02:00:02;100616.75;;;20.96;49.61
74621;BME280;64861;47.546;19.254;2022-12-18T02:02:29;100618.53;;;20.96;49.78
74621;BME280;64861;47.546;19.254;2022-12-18T02:04:55;100618.53;;;20.96;49.57
74621;BME280;64861;47.546;19.254;2022-12-18T02:07:38;100616.59;;;20.98;49.39
74621;BME280;64861;47.546;19.254;2022-12-18T02:10:17;100634.22;;;20.99;49.56
74621;BME280;64861;47.546;19.254;2022-12-18T02:12:45;100629.91;;;20.98;49.53
74621;BME280;64861;47.546;19.254;2022-12-18T02:15:43;100624.16;;;20.93;49.37
74621;BME280;64861;47.546;19.254;2022-12-18T02:18:10;100631.13;;;20.94;49.60
74621;BME280;64861;47.546;19.254;2022-12-18T02:23:48;100642.09;;;21.00;49.35
74621;BME280;64861;47.546;19.254;2022-12-18T02:26:19;100640.78;;;20.95;49.42
74621;BME280;64861;47.546;19.254;2022-12-18T02:29:00;100644.44;;;20.94;49.52
74621;BME280;64861;47.546;19.254;2022-12-18T02:31:31;100653.09;;;20.96;49.50
74621;BME280;64861;47.546;19.254;2022-12-18T02:34:01;100647.34;;;20.91;49.40
74621;BME280;64861;47.546;19.254;2022-12-18T02:36:28;100649.59;;;20.95;49.34
74621;BME280;64861;47.546;19.254;2022-12-18T02:38:56;100653.97;;;20.96;49.30
74621;BME280;64861;47.546;19.254;2022-12-18T02:41:23;100658.69;;;20.93;49.37
74621;BME280;64861;47.546;19.254;2022-12-18T02:43:55;100653.22;;;20.94;49.49
74621;BME280;64861;47.546;19.254;2022-12-18T02:46:33;100661.78;;;20.98;49.26
74621;BME280;64861;47.546;19.254;2022-12-18T02:58:04;100670.84;;;20.95;49.02
74621;BME280;64861;47.546;19.254;2022-12-18T03:03:15;100679.56;;;20.97;49.06
74621;BME280;64861;47.546;19.254;2022-12-18T03:05:50;100674.66;;;21.02;49.09
74621;BME280;64861;47.546;19.254;2022-12-18T03:08:21;100679.41;;;20.99;49.15
74621;BME280;64861;47.546;19.254;2022-12-18T03:13:25;100680.78;;;20.93;49.09
74621;BME280;64861;47.546;19.254;2022-12-18T03:15:56;100675.47;;;20.93;49.08
74621;BME280;64861;47.546;19.254;2022-12-18T03:18:29;100685.28;;;20.93;49.18
74621;BME280;64861;47.546;19.254;2022-12-18T03:20:58;100685.97;;;20.95;49.12
74621;BME280;64861;47.546;19.254;2022-12-18T03:23:28;100698.16;;;20.97;49.18
74621;BME280;64861;47.546;19.254;2022-12-18T03:25:57;100690.44;;;20.94;48.83
74621;BME280;64861;47.546;19.254;2022-12-18T03:28:26;100695.63;;;20.96;48.94
74621;BME280;64861;47.546;19.254;2022-12-18T03:30:57;100694.34;;;20.90;48.65
74621;BME280;64861;47.546;19.254;2022-12-18T03:33:31;100701.59;;;20.88;49.12
74621;BME280;64861;47.546;19.254;2022-12-18T03:36:00;100698.34;;;20.84;48.96
74621;BME280;64861;47.546;19.254;2022-12-18T03:38:26;100717.84;;;20.95;48.87
74621;BME280;64861;47.546;19.254;2022-12-18T03:47:07;100727.66;;;20.94;48.89
74621;BME280;64861;47.546;19.254;2022-12-18T03:49:40;100722.34;;;20.94;48.87
74621;BME280;64861;47.546;19.254;2022-12-18T03:52:20;100718.13;;;20.92;48.83
74621;BME280;64861;47.546;19.254;2022-12-18T03:54:47;100720.09;;;20.90;48.78
74621;BME280;64861;47.546;19.254;2022-12-18T03:57:17;100715.13;;;20.85;48.97
74621;BME280;64861;47.546;19.254;2022-12-18T03:59:44;100724.16;;;20.94;48.90
74621;BME280;64861;47.546;19.254;2022-12-18T04:02:11;100716.81;;;20.86;48.90
74621;BME280;64861;47.546;19.254;2022-12-18T04:04:39;100725.41;;;20.90;48.81
74621;BME280;64861;47.546;19.254;2022-12-18T04:07:06;100727.91;;;20.91;48.90
74621;BME280;64861;47.546;19.254;2022-12-18T04:09:32;100731.03;;;20.96;48.77
74621;BME280;64861;47.546;19.254;2022-12-18T04:11:59;100724.41;;;20.91;48.58
74621;BME280;64861;47.546;19.254;2022-12-18T04:14:25;100731.66;;;20.88;48.69
74621;BME280;64861;47.546;19.254;2022-12-18T04:16:50;100730.56;;;20.91;48.50
74621;BME280;64861;47.546;19.254;2022-12-18T04:19:15;100744.44;;;20.95;48.79
74621;BME280;64861;47.546;19.254;2022-12-18T04:21:41;100741.78;;;20.95;48.69
74621;BME280;64861;47.546;19.254;2022-12-18T04:24:07;100738.69;;;20.90;48.52
74621;BME280;64861;47.546;19.254;2022-12-18T04:26:32;100740.63;;;20.87;48.84
74621;BME280;64861;47.546;19.254;2022-12-18T04:28:57;100736.13;;;20.88;48.70
74621;BME280;64861;47.546;19.254;2022-12-18T04:31:23;100745.66;;;20.91;48.56
74621;BME280;64861;47.546;19.254;2022-12-18T04:33:48;100748.97;;;20.83;48.67
74621;BME280;64861;47.546;19.254;2022-12-18T04:36:14;100752.09;;;20.88;48.61
74621;BME280;64861;47.546;19.254;2022-12-18T04:38:39;100751.97;;;20.90;48.71
74621;BME280;64861;47.546;19.254;2022-12-18T04:41:05;100756.56;;;20.87;48.79
74621;BME280;64861;47.546;19.254;2022-12-18T04:43:30;100749.69;;;20.85;48.51
74621;BME280;64861;47.546;19.254;2022-12-18T04:46:05;100771.53;;;20.88;48.69
74621;BME280;64861;47.546;19.254;2022-12-18T04:48:31;100779.13;;;20.93;48.41
74621;BME280;64861;47.546;19.254;2022-12-18T04:50:58;100764.06;;;20.82;48.50
74621;BME280;64861;47.546;19.254;2022-12-18T04:53:23;100763.69;;;20.87;48.42
74621;BME280;64861;47.546;19.254;2022-12-18T04:55:49;100771.78;;;20.85;48.57
74621;BME280;64861;47.546;19.254;2022-12-18T04:58:14;100783.59;;;20.93;48.55
74621;BME280;64861;47.546;19.254;2022-12-18T05:00:40;100792.41;;;20.93;48.43
74621;BME280;64861;47.546;19.254;2022-12-18T05:03:05;100788.19;;;20.91;48.62
74621;BME280;64861;47.546;19.254;2022-12-18T05:05:31;100790.13;;;20.88;48.53
74621;BME280;64861;47.546;19.254;2022-12-18T05:07:56;100793.50;;;20.91;48.42
74621;BME280;64861;47.546;19.254;2022-12-18T05:10:22;100789.53;;;20.85;48.44
74621;BME280;64861;47.546;19.254;2022-12-18T05:12:47;100807.88;;;20.88;48.66
74621;BME280;64861;47.546;19.254;2022-12-18T05:15:31;100803.66;;;20.85;48.17
74621;BME280;64861;47.546;19.254;2022-12-18T05:17:58;100813.78;;;20.92;48.29
74621;BME280;64861;47.546;19.254;2022-12-18T05:20:25;100796.94;;;20.81;48.42
74621;BME280;64861;47.546;19.254;2022-12-18T05:22:51;100802.00;;;20.84;48.33
74621;BME280;64861;47.546;19.254;2022-12-18T05:25:16;100790.88;;;20.79;48.34
74621;BME280;64861;47.546;19.254;2022-12-18T05:27:42;100793.69;;;20.78;48.28
74621;BME280;64861;47.546;19.254;2022-12-18T05:30:08;100807.06;;;20.87;48.16
74621;BME280;64861;47.546;19.254;2022-12-18T05:32:34;100809.22;;;20.82;48.47
74621;BME280;64861;47.546;19.254;2022-12-18T05:34:59;100821.19;;;20.88;48.35
74621;BME280;64861;47.546;19.254;2022-12-18T05:37:25;100828.41;;;20.86;48.21
74621;BME280;64861;47.546;19.254;2022-12-18T05:39:50;100821.69;;;20.82;48.22
74621;BME280;64861;47.546;19.254;2022-12-18T05:42:16;100827.56;;;20.85;48.25
74621;BME280;64861;47.546;19.254;2022-12-18T05:44:43;100834.72;;;20.85;48.23
74621;BME280;64861;47.546;19.254;2022-12-18T05:47:08;100816.25;;;20.83;48.12
74621;BME280;64861;47.546;19.254;2022-12-18T05:49:34;100821.09;;;20.78;48.11
74621;BME280;64861;47.546;19.254;2022-12-18T05:51:59;100824.09;;;20.85;48.07
74621;BME280;64861;47.546;19.254;2022-12-18T05:54:27;100833.63;;;20.87;48.06
74621;BME280;64861;47.546;19.254;2022-12-18T05:56:53;100840.88;;;20.85;48.15
74621;BME280;64861;47.546;19.254;2022-12-18T05:59:19;100838.84;;;20.78;48.12
74621;BME280;64861;47.546;19.254;2022-12-18T06:01:45;100838.72;;;20.79;48.13
74621;BME280;64861;47.546;19.254;2022-12-18T06:04:11;100832.44;;;20.80;48.29
74621;BME280;64861;47.546;19.254;2022-12-18T06:06:36;100841.50;;;20.78;48.13
74621;BME280;64861;47.546;19.254;2022-12-18T06:09:02;100854.03;;;20.87;48.07
74621;BME280;64861;47.546;19.254;2022-12-18T06:11:34;100862.72;;;20.89;48.02
74621;BME280;64861;47.546;19.254;2022-12-18T06:14:00;100850.06;;;20.81;48.08
74621;BME280;64861;47.546;19.254;2022-12-18T06:16:27;100849.34;;;20.79;48.21
74621;BME280;64861;47.546;19.254;2022-12-18T06:18:55;100865.75;;;20.84;48.11
74621;BME280;64861;47.546;19.254;2022-12-18T06:21:21;100863.59;;;20.90;48.10
74621;BME280;64861;47.546;19.254;2022-12-18T06:23:46;100862.13;;;20.85;47.90
74621;BME280;64861;47.546;19.254;2022-12-18T06:26:12;100867.94;;;20.79;47.93
74621;BME280;64861;47.546;19.254;2022-12-18T06:28:38;100867.94;;;20.79;47.87
74621;BME280;64861;47.546;19.254;2022-12-18T06:31:04;100867.69;;;20.82;47.91
74621;BME280;64861;47.546;19.254;2022-12-18T06:33:30;100877.22;;;20.85;47.82
74621;BME280;64861;47.546;19.254;2022-12-18T06:36:04;100878.81;;;20.87;47.81
74621;BME280;64861;47.546;19.254;2022-12-18T06:38:34;100897.16;;;20.91;47.98
74621;BME280;64861;47.546;19.254;2022-12-18T06:41:00;100892.47;;;20.83;47.69
74621;BME280;64861;47.546;19.254;2022-12-18T06:43:26;100895.00;;;20.84;47.81
74621;BME280;64861;47.546;19.254;2022-12-18T06:46:00;100904.28;;;20.90;47.85
74621;BME280;64861;47.546;19.254;2022-12-18T06:48:25;100907.66;;;20.92;48.08
74621;BME280;64861;47.546;19.254;2022-12-18T06:50:51;100908.63;;;20.91;48.15
74621;BME280;64861;47.546;19.254;2022-12-18T06:53:16;100914.69;;;20.93;48.58
74621;BME280;64861;47.546;19.254;2022-12-18T06:55:42;100924.19;;;20.96;48.65
74621;BME280;64861;47.546;19.254;2022-12-18T06:58:08;100926.50;;;21.00;48.40
74621;BME280;64861;47.546;19.254;2022-12-18T07:00:33;100923.09;;;20.98;48.80
74621;BME280;64861;47.546;19.254;2022-12-18T07:02:59;100927.72;;;20.96;48.64
74621;BME280;64861;47.546;19.254;2022-12-18T07:05:24;100931.06;;;20.98;48.50
74621;BME280;64861;47.546;19.254;2022-12-18T07:07:50;100939.78;;;21.00;48.93
74621;BME280;64861;47.546;19.254;2022-12-18T07:10:15;100931.91;;;20.99;48.96
74621;BME280;64861;47.546;19.254;2022-12-18T07:12:40;100936.88;;;21.03;48.97
74621;BME280;64861;47.546;19.254;2022-12-18T07:15:06;100944.00;;;21.03;49.40
74621;BME280;64861;47.546;19.254;2022-12-18T07:17:32;100958.59;;;21.08;49.26
74621;BME280;64861;47.546;19.254;2022-12-18T07:19:58;100947.84;;;21.10;49.32
74621;BME280;64861;47.546;19.254;2022-12-18T07:22:25;100956.91;;;21.07;49.42
74621;BME280;64861;47.546;19.254;2022-12-18T07:24:53;100952.44;;;21.08;49.64
74621;BME280;64861;47.546;19.254;2022-12-18T07:27:18;100966.31;;;21.11;49.45
74621;BME280;64861;47.546;19.254;2022-12-18T07:29:44;100963.66;;;21.11;49.35
74621;BME280;64861;47.546;19.254;2022-12-18T07:32:09;100971.88;;;21.08;49.53
74621;BME280;64861;47.546;19.254;2022-12-18T07:34:36;100977.94;;;21.10;49.54
74621;BME280;64861;47.546;19.254;2022-12-18T07:37:02;100994.00;;;21.09;49.52
74621;BME280;64861;47.546;19.254;2022-12-18T07:39:28;100988.09;;;21.05;49.24
74621;BME280;64861;47.546;19.254;2022-12-18T07:41:54;100990.50;;;21.08;49.07
74621;BME280;64861;47.546;19.254;2022-12-18T07:44:38;100979.41;;;21.03;49.11
74621;BME280;64861;47.546;19.254;2022-12-18T07:47:04;100989.19;;;21.03;49.00
74621;BME280;64861;47.546;19.254;2022-12-18T07:49:31;100980.34;;;21.02;49.20
74621;BME280;64861;47.546;19.254;2022-12-18T07:51:57;101007.78;;;21.14;49.14
74621;BME280;64861;47.546;19.254;2022-12-18T07:54:24;100994.13;;;21.07;49.15
74621;BME280;64861;47.546;19.254;2022-12-18T07:56:50;101010.44;;;21.14;49.14
74621;BME280;64861;47.546;19.254;2022-12-18T07:59:16;101001.97;;;21.09;48.95
74621;BME280;64861;47.546;19.254;2022-12-18T08:01:42;101008.16;;;21.09;48.80
74621;BME280;64861;47.546;19.254;2022-12-18T08:04:07;101018.66;;;21.11;48.85
74621;BME280;64861;47.546;19.254;2022-12-18T08:06:33;101016.84;;;21.11;48.69
74621;BME280;64861;47.546;19.254;2022-12-18T08:08:59;101020.34;;;21.12;48.87
74621;BME280;64861;47.546;19.254;2022-12-18T08:11:26;101029.53;;;21.19;48.69
74621;BME280;64861;47.546;19.254;2022-12-18T08:13:52;101037.00;;;21.25;48.42
74621;BME280;64861;47.546;19.254;2022-12-18T08:16:18;101026.97;;;21.18;48.62
74621;BME280;64861;47.546;19.254;2022-12-18T08:18:44;101026.88;;;21.19;48.65
74621;BME280;64861;47.546;19.254;2022-12-18T08:21:15;101043.53;;;21.32;48.55
74621;BME280;64861;47.546;19.254;2022-12-18T08:23:42;101042.56;;;21.33;48.83
74621;BME280;64861;47.546;19.254;2022-12-18T08:26:10;101029.03;;;21.37;48.89
74621;BME280;64861;47.546;19.254;2022-12-18T08:28:36;101041.25;;;21.39;48.86
74621;BME280;64861;47.546;19.254;2022-12-18T08:31:01;101034.56;;;21.33;48.98
74621;BME280;64861;47.546;19.254;2022-12-18T08:33:27;101049.09;;;21.41;49.21
74621;BME280;64861;47.546;19.254;2022-12-18T08:35:52;101027.81;;;21.29;49.15
74621;BME280;64861;47.546;19.254;2022-12-18T08:38:18;101049.69;;;21.33;49.29
74621;BME280;64861;47.546;19.254;2022-12-18T08:40:43;101051.59;;;21.42;49.37
74621;BME280;64861;47.546;19.254;2022-12-18T08:43:10;101043.19;;;21.37;49.02
74621;BME280;64861;47.546;19.254;2022-12-18T08:45:54;101044.75;;;21.40;49.02
74621;BME280;64861;47.546;19.254;2022-12-18T08:48:20;101044.50;;;21.43;49.17
74621;BME280;64861;47.546;19.254;2022-12-18T08:50:58;101048.34;;;21.50;49.22
74621;BME280;64861;47.546;19.254;2022-12-18T08:53:25;101043.47;;;21.55;49.03
74621;BME280;64861;47.546;19.254;2022-12-18T08:55:53;101047.13;;;21.54;49.34
74621;BME280;64861;47.546;19.254;2022-12-18T08:58:19;101050.97;;;21.61;49.50
74621;BME280;64861;47.546;19.254;2022-12-18T09:00:44;101048.53;;;21.58;49.60
74621;BME280;64861;47.546;19.254;2022-12-18T09:03:12;101058.50;;;21.56;49.40
74621;BME280;64861;47.546;19.254;2022-12-18T09:05:38;101071.66;;;21.57;49.27
74621;BME280;64861;47.546;19.254;2022-12-18T09:08:03;101064.19;;;21.29;47.69
74621;BME280;64861;47.546;19.254;2022-12-18T09:10:29;101064.66;;;21.34;47.00
74621;BME280;64861;47.546;19.254;2022-12-18T09:12:54;101069.13;;;21.45;47.91
74621;BME280;64861;47.546;19.254;2022-12-18T09:15:21;101066.38;;;21.46;48.38
74621;BME280;64861;47.546;19.254;2022-12-18T09:17:47;101075.78;;;21.50;48.74
74621;BME280;64861;47.546;19.254;2022-12-18T09:20:13;101090.28;;;21.57;48.36
74621;BME280;64861;47.546;19.254;2022-12-18T09:22:39;101081.56;;;21.55;48.46
74621;BME280;64861;47.546;19.254;2022-12-18T09:25:04;101085.94;;;21.56;48.31
74621;BME280;64861;47.546;19.254;2022-12-18T09:27:33;101080.38;;;21.60;48.38
74621;BME280;64861;47.546;19.254;2022-12-18T09:29:58;101099.44;;;21.76;48.12
74621;BME280;64861;47.546;19.254;2022-12-18T09:32:24;101086.72;;;21.79;47.96
74621;BME280;64861;47.546;19.254;2022-12-18T09:34:49;101082.22;;;21.80;47.70
74621;BME280;64861;47.546;19.254;2022-12-18T09:37:15;101076.91;;;21.80;47.61
74621;BME280;64861;47.546;19.254;2022-12-18T09:39:40;101096.47;;;21.90;47.66
74621;BME280;64861;47.546;19.254;2022-12-18T09:42:21;101072.91;;;21.86;47.48
74621;BME280;64861;47.546;19.254;2022-12-18T09:44:52;101074.91;;;21.93;47.32
74621;BME280;64861;47.546;19.254;2022-12-18T09:47:30;101080.78;;;22.08;46.82
74621;BME280;64861;47.546;19.254;2022-12-18T09:50:04;101084.66;;;22.15;46.74
74621;BME280;64861;47.546;19.254;2022-12-18T09:52:35;101086.69;;;22.23;46.57
74621;BME280;64861;47.546;19.254;2022-12-18T09:55:11;101095.75;;;22.41;46.29
74621;BME280;64861;47.546;19.254;2022-12-18T09:57:47;101089.03;;;22.68;45.68
74621;BME280;64861;47.546;19.254;2022-12-18T10:00:23;101080.91;;;23.40;44.02
74621;BME280;64861;47.546;19.254;2022-12-18T10:03:02;101086.16;;;24.96;40.82
74621;BME280;64861;47.546;19.254;2022-12-18T10:16:52;101073.72;;;27.76;33.78
74621;BME280;64861;47.546;19.254;2022-12-18T10:19:47;101079.44;;;28.06;33.43
74621;BME280;64861;47.546;19.254;2022-12-18T10:25:26;101067.28;;;27.61;33.83
74621;BME280;64861;47.546;19.254;2022-12-18T10:28:06;101060.59;;;27.73;33.67
74621;BME280;64861;47.546;19.254;2022-12-18T10:30:32;101066.84;;;27.90;33.50
74621;BME280;64861;47.546;19.254;2022-12-18T10:33:02;101069.78;;;28.61;31.30
74621;BME280;64861;47.546;19.254;2022-12-18T10:35:28;101068.81;;;28.53;32.16
74621;BME280;64861;47.546;19.254;2022-12-18T10:51:39;101079.41;;;26.54;36.63
74621;BME280;64861;47.546;19.254;2022-12-18T10:54:21;101075.00;;;25.83;37.89
74621;BME280;64861;47.546;19.254;2022-12-18T10:56:47;101076.25;;;25.06;39.78
74621;BME280;64861;47.546;19.254;2022-12-18T10:59:15;101079.28;;;24.93;40.10
74621;BME280;64861;47.546;19.254;2022-12-18T11:04:29;101085.78;;;24.91;40.32
74621;BME280;64861;47.546;19.254;2022-12-18T11:07:06;101086.53;;;24.73;40.82
74621;BME280;64861;47.546;19.254;2022-12-18T11:09:37;101079.25;;;24.66;40.98
74621;BME280;64861;47.546;19.254;2022-12-18T11:12:18;101071.81;;;24.50;41.27
74621;BME280;64861;47.546;19.254;2022-12-18T11:14:50;101076.78;;;24.45;41.63
74621;BME280;64861;47.546;19.254;2022-12-18T11:17:34;101064.69;;;24.41;41.84
74621;BME280;64861;47.546;19.254;2022-12-18T11:20:21;101059.34;;;24.41;41.94
74621;BME280;64861;47.546;19.254;2022-12-18T11:22:57;101066.63;;;24.38;42.04
74621;BME280;64861;47.546;19.254;2022-12-18T11:25:23;101058.06;;;24.25;42.32
74621;BME280;64861;47.546;19.254;2022-12-18T11:27:53;101064.56;;;24.13;42.71
74621;BME280;64861;47.546;19.254;2022-12-18T11:32:47;101071.72;;;24.03;42.96
74621;BME280;64861;47.546;19.254;2022-12-18T11:35:21;101063.16;;;23.99;43.01
74621;BME280;64861;47.546;19.254;2022-12-18T11:37:56;101063.44;;;23.86;43.36
74621;BME280;64861;47.546;19.254;2022-12-18T11:40:44;101063.31;;;23.78;43.66
74621;BME280;64861;47.546;19.254;2022-12-18T11:43:25;101050.09;;;23.77;43.67
74621;BME280;64861;47.546;19.254;2022-12-18T11:46:13;101059.75;;;23.58;41.69
74621;BME280;64861;47.546;19.254;2022-12-18T11:48:54;101055.88;;;23.72;41.48
74621;BME280;64861;47.546;19.254;2022-12-18T11:51:33;101053.41;;;23.40;43.81
74621;BME280;64861;47.546;19.254;2022-12-18T11:54:01;101052.13;;;23.34;44.03
74621;BME280;64861;47.546;19.254;2022-12-18T11:56:33;101052.53;;;23.30;44.18
74621;BME280;64861;47.546;19.254;2022-12-18T12:01:51;101050.28;;;23.25;44.41
74621;BME280;64861;47.546;19.254;2022-12-18T12:04:43;101054.78;;;23.25;44.68
74621;BME280;64861;47.546;19.254;2022-12-18T12:07:23;101043.88;;;23.57;43.87
74621;BME280;64861;47.546;19.254;2022-12-18T12:10:03;101048.69;;;23.92;43.04
74621;BME280;64861;47.546;19.254;2022-12-18T12:16:07;101049.63;;;23.52;43.92
74621;BME280;64861;47.546;19.254;2022-12-18T12:26:19;101032.31;;;22.87;45.49
74621;BME280;64861;47.546;19.254;2022-12-18T12:28:53;101038.47;;;22.87;45.28
74621;BME280;64861;47.546;19.254;2022-12-18T12:37:03;101036.50;;;22.80;45.45
74621;BME280;64861;47.546;19.254;2022-12-18T12:39:36;101042.78;;;22.69;46.23
74621;BME280;64861;47.546;19.254;2022-12-18T12:42:29;101050.19;;;22.65;46.20
74621;BME280;64861;47.546;19.254;2022-12-18T12:45:21;101054.22;;;22.60;46.67
74621;BME280;64861;47.546;19.254;2022-12-18T12:47:48;101050.97;;;22.56;46.67
74621;BME280;64861;47.546;19.254;2022-12-18T12:50:18;101057.81;;;22.49;46.91
74621;BME280;64861;47.546;19.254;2022-12-18T12:52:51;101065.81;;;22.49;47.10
74621;BME280;64861;47.546;19.254;2022-12-18T12:55:24;101067.91;;;22.45;47.25
74621;BME280;64861;47.546;19.254;2022-12-18T12:58:11;101074.66;;;22.49;47.16
74621;BME280;64861;47.546;19.254;2022-12-18T13:09:00;101078.94;;;22.41;46.95
74621;BME280;64861;47.546;19.254;2022-12-18T13:11:46;101084.78;;;22.35;47.42
74621;BME280;64861;47.546;19.254;2022-12-18T13:14:39;101092.06;;;22.33;47.41
74621;BME280;64861;47.546;19.254;2022-12-18T13:19:50;101078.09;;;22.19;47.65
74621;BME280;64861;47.546;19.254;2022-12-18T13:22:38;101091.28;;;22.21;47.66
74621;BME280;64861;47.546;19.254;2022-12-18T13:25:36;101096.75;;;22.19;47.81
74621;BME280;64861;47.546;19.254;2022-12-18T13:28:09;101087.03;;;22.18;47.89
74621;BME280;64861;47.546;19.254;2022-12-18T13:40:54;101115.03;;;22.13;48.35
74621;BME280;64861;47.546;19.254;2022-12-18T13:46:19;101118.19;;;22.07;48.66
74621;BME280;64861;47.546;19.254;2022-12-18T13:51:42;101122.09;;;22.02;48.60
74621;BME280;64861;47.546;19.254;2022-12-18T13:56:49;101114.22;;;22.01;49.02
74621;BME280;64861;47.546;19.254;2022-12-18T14:01:44;101126.28;;;22.05;48.74
74621;BME280;64861;47.546;19.254;2022-12-18T14:04:20;101130.31;;;21.99;49.02
74621;BME280;64861;47.546;19.254;2022-12-18T14:06:47;101128.50;;;22.00;49.05
74621;BME280;64861;47.546;19.254;2022-12-18T14:09:35;101125.59;;;22.03;49.06
74621;BME280;64861;47.546;19.254;2022-12-18T14:12:02;101125.09;;;21.98;49.07
74621;BME280;64861;47.546;19.254;2022-12-18T14:14:49;101128.09;;;22.04;48.94
74621;BME280;64861;47.546;19.254;2022-12-18T14:17:16;101126.22;;;21.95;49.34
74621;BME280;64861;47.546;19.254;2022-12-18T14:19:49;101121.75;;;21.96;49.19
74621;BME280;64861;47.546;19.254;2022-12-18T14:22:18;101120.75;;;21.97;49.58
74621;BME280;64861;47.546;19.254;2022-12-18T14:24:44;101117.50;;;21.93;49.28
74621;BME280;64861;47.546;19.254;2022-12-18T14:27:28;101125.75;;;21.90;49.45
74621;BME280;64861;47.546;19.254;2022-12-18T14:29:53;101123.59;;;21.84;49.61
74621;BME280;64861;47.546;19.254;2022-12-18T14:32:20;101122.59;;;21.85;49.61
74621;BME280;64861;47.546;19.254;2022-12-18T14:34:51;101120.09;;;21.84;49.66
74621;BME280;64861;47.546;19.254;2022-12-18T14:37:20;101121.81;;;21.73;49.97
74621;BME280;64861;47.546;19.254;2022-12-18T14:40:12;101135.56;;;21.78;49.64
74621;BME280;64861;47.546;19.254;2022-12-18T14:42:38;101142.13;;;21.74;49.83
74621;BME280;64861;47.546;19.254;2022-12-18T14:45:38;101137.03;;;21.71;49.97
74621;BME280;64861;47.546;19.254;2022-12-18T14:48:11;101146.34;;;21.77;49.72